Pagrindinis puslapis
METAR-TAF:

METAR-TAF

Oro uostai :

Kabulas, Afganistanas

platuma: 34-38N, ilguma: 069-12E, Aukštis: 1789 m

Dabartinis oras

Ataskaita buvo paskelbta 17 minutes, ne 06:50 UTC
Vėjas 2 kt nuo kintamojo kryptimis
Temperatūra 7°C
Drėgmė 21%
Slėgis 1023 hPa
Matomumas: 6000 m
migla

METAR: OAKB 250650Z VRB02KT 6000 3000SE-SW HZ NSC 07/M14 Q1023 RMK 3023 WHT WHT

Laikas: 11:37 (07:07 UTC)

Prognozė

Ataskaita buvo paskelbta 2 valandos ir 2 minutes, ne 05:05 UTC
Prognozė galioja nuo 25 metu 06 UTC su 26 metu 06 UTC
Vėjas 2 kt nuo kintamojo kryptimis
Matomumas: 4000 m
migla
Tapsmas
nuo 25 metu 06 UTC su 25 metu 08 UTC
Matomumas: 7000 m
Tapsmas
nuo 25 metu 14 UTC su 25 metu 16 UTC
Matomumas: 3000 m
dūmai
Tapsmas
nuo 25 metu 17 UTC su 25 metu 19 UTC
Matomumas: 1200 m
Tapsmas
nuo 25 metu 22 UTC su 25 metu 24 UTC
Matomumas: 4000 m
Tapsmas
nuo 26 metu 04 UTC su 26 metu 06 UTC
Matomumas: 8000 m

TAF: OAKB 250505Z 2506/2606 VRB02KT 4000 HZ BECMG 2506/2508 7000 NSW BECMG 2514/2516 3000 FU BECMG 2517/2519 1200 BECMG 2522/2524 4000 BECMG 2604/2606 8000 NSW

Orai ataskaitas ir orų prognozės (METAR, TAF).

turimą stotys yra geltonos ir raudonos taškus žemėlapyje.

Perkelti pele per norėdami pamatyti stoties vardą.

Tada spustelėkite, norėdami matyti oro stebėjimo ir prognozės.

Norėdami pakeisti žemėlapį: spustelėkite ant žalios mygtukų su juodo kryžiaus žemyn,; žalią mygtuką su brūkšneliu, jei norite nutolinti; arba žalių rodyklių gretimoms žemėlapius.


METAR-TAF: